Time;durP1;ratioP1;P1;durP2;ratioP2;P2;SDS_P1;SDS_P2;PMS_P1;PMS_P2;Temp;Humidity;BMP_temperature;BMP_pressure;BME280_temperature;BME280_humidity;BME280_pressure;Samples;Min_cycle;Max_cycle;Signal;HPM_P1;HPM_P2
2021/07/14 00:00:10;;;;;;;;;;;;;;;22.08;63.63;101491.97;2212800;39;114656;-55
2021/07/14 00:01:41;;;;;;;;;;;;;;;22.09;63.63;101502.09;2208075;39;114866;-56
2021/07/14 00:03:13;;;;;;;;;;;;;;;22.10;63.54;101498.16;2210809;39;115248;-56
2021/07/14 00:04:45;;;;;;;;;;;;;;;22.07;63.51;101493.97;2210506;39;114769;-55
2021/07/14 00:06:17;;;;;;;;;;;;;;;22.08;63.64;101491.97;2209134;39;114788;-55
2021/07/14 00:07:49;;;;;;;;;;;;;;;22.08;63.61;101495.63;2210790;39;114822;-55
2021/07/14 00:09:21;;;;;;;;;;;;;;;22.07;63.45;101493.97;2210243;39;115160;-55
2021/07/14 00:10:53;;;;;;;;;;;;;;;22.07;63.56;101487.50;2206718;39;114919;-56
2021/07/14 00:12:27;;;;;;;;;;;;;;;22.06;63.54;101491.47;2210336;39;114926;-56
2021/07/14 00:14:15;;;;;;;;;;;;;;;22.07;63.39;101493.97;2209704;39;115061;-55
2021/07/14 00:17:44;;;;;;;;;;;;;;;22.07;63.54;101491.16;2212604;39;114812;-56
2021/07/14 00:22:33;;;;;;;;;;;;;;;22.09;63.57;101496.47;2210947;39;115488;-55
2021/07/14 00:24:05;;;;;;;;;;;;;;;22.09;63.61;101491.69;2209411;39;114580;-56
2021/07/14 00:25:37;;;;;;;;;;;;;;;22.12;63.85;101495.88;2205550;39;115520;-55
2021/07/14 00:27:10;;;;;;;;;;;;;;;22.13;63.56;101494.72;2207758;39;116079;-55
2021/07/14 00:28:48;;;;;;;;;;;;;;;22.12;63.64;101493.88;2198430;39;115419;-56
2021/07/14 00:30:25;;;;;;;;;;;;;;;22.13;63.56;101491.91;2210086;39;114546;-55
2021/07/14 00:31:57;;;;;;;;;;;;;;;22.11;63.52;101489.41;2211322;39;115482;-55
2021/07/14 00:33:30;;;;;;;;;;;;;;;22.10;63.58;101493.34;2210996;39;116038;-56
2021/07/14 00:35:02;;;;;;;;;;;;;;;22.12;63.69;101491.06;2211744;39;115817;-56
2021/07/14 00:36:34;;;;;;;;;;;;;;;22.12;63.60;101490.25;2211113;39;115466;-55
2021/07/14 00:38:05;;;;;;;;;;;;;;;22.13;63.70;101486.25;2215181;39;115443;-55
2021/07/14 00:39:37;;;;;;;;;;;;;;;22.13;63.41;101477.81;2215433;39;115618;-55
2021/07/14 00:41:09;;;;;;;;;;;;;;;22.12;63.58;101487.44;2215869;39;113697;-55
2021/07/14 00:42:41;;;;;;;;;;;;;;;22.11;63.46;101486.59;2210566;39;114099;-56
2021/07/14 00:44:13;;;;;;;;;;;;;;;22.13;63.54;101489.91;2210372;39;113743;-55
2021/07/14 00:45:44;;;;;;;;;;;;;;;22.13;63.62;101491.91;2202164;39;114083;-55
2021/07/14 00:47:22;;;;;;;;;;;;;;;22.13;63.45;101484.28;2205675;39;113906;-56
2021/07/14 00:48:57;;;;;;;;;;;;;;;22.11;63.37;101482.94;2203514;39;113781;-55
2021/07/14 00:50:29;;;;;;;;;;;;;;;22.11;63.64;101480.13;2214884;39;113767;-57
2021/07/14 00:52:01;;;;;;;;;;;;;;;22.10;63.49;101489.69;2210192;39;113942;-56
2021/07/14 00:53:32;;;;;;;;;;;;;;;22.14;63.54;101476.69;2210822;39;113700;-55
2021/07/14 00:55:04;;;;;;;;;;;;;;;22.13;63.41;101472.19;2211022;39;113711;-55
2021/07/14 00:56:37;;;;;;;;;;;;;;;22.13;63.22;101472.19;2211155;39;113806;-55
2021/07/14 00:58:08;;;;;;;;;;;;;;;22.12;63.58;101471.34;2211652;39;113583;-56
2021/07/14 00:59:40;;;;;;;;;;;;;;;22.12;63.39;101464.91;2211528;39;113645;-56
2021/07/14 01:01:12;;;;;;;;;;;;;;;22.13;63.55;101473.03;2214515;39;113688;-56
2021/07/14 01:02:44;;;;;;;;;;;;;;;22.09;63.47;101466.34;2211511;39;114885;-56
2021/07/14 01:04:21;;;;;;;;;;;;;;;22.12;63.40;101467.72;2211677;39;115066;-56
2021/07/14 01:05:54;;;;;;;;;;;;;;;22.11;63.41;101469.72;2210259;39;114423;-55
2021/07/14 01:07:29;;;;;;;;;;;;;;;22.12;63.45;101464.91;2211192;39;114778;-56
2021/07/14 01:09:03;;;;;;;;;;;;;;;22.12;63.53;101462.09;2201906;39;115133;-55
2021/07/14 01:10:40;;;;;;;;;;;;;;;22.13;63.28;101460.94;2212960;39;114882;-56
2021/07/14 01:12:15;;;;;;;;;;;;;;;22.11;63.53;101454.78;2210698;39;116030;-55
2021/07/14 01:13:51;;;;;;;;;;;;;;;22.10;63.62;101459.59;2210531;39;114873;-56
2021/07/14 01:15:25;;;;;;;;;;;;;;;22.11;63.34;101443.53;2204812;39;114877;-55
2021/07/14 01:17:02;;;;;;;;;;;;;;;22.13;63.55;101458.97;2210889;39;115168;-56
2021/07/14 01:18:36;;;;;;;;;;;;;;;22.13;63.68;101456.16;2211299;39;114886;-55
2021/07/14 01:20:18;;;;;;;;;;;;;;;22.09;63.58;101457.91;2211568;39;114751;-56
2021/07/14 01:21:54;;;;;;;;;;;;;;;22.10;63.57;101441.84;2215970;39;113785;-55
2021/07/14 01:23:28;;;;;;;;;;;;;;;22.09;63.59;101445.81;2214987;39;115079;-55
2021/07/14 01:25:06;;;;;;;;;;;;;;;22.09;63.62;101452.28;2211811;39;115648;-56
2021/07/14 01:26:38;;;;;;;;;;;;;;;22.08;63.35;101450.59;2208474;39;115799;-56
2021/07/14 01:28:10;;;;;;;;;;;;;;;22.09;63.32;101449.47;2211530;39;115637;-56
2021/07/14 01:29:51;;;;;;;;;;;;;;;22.08;63.33;101450.59;2206528;39;114623;-55
2021/07/14 01:31:24;;;;;;;;;;;;;;;22.07;63.72;101448.13;2210652;39;115496;-55
2021/07/14 01:32:57;;;;;;;;;;;;;;;22.08;63.70;101447.78;2207447;39;116617;-56
2021/07/14 01:34:31;;;;;;;;;;;;;;;22.10;63.59;101453.13;2209598;39;115774;-56
2021/07/14 01:36:05;;;;;;;;;;;;;;;22.10;63.46;101453.13;2211499;39;116096;-56
2021/07/14 01:37:39;;;;;;;;;;;;;;;22.10;63.66;101458.75;2211749;39;115517;-56
2021/07/14 01:39:11;;;;;;;;;;;;;;;22.09;63.71;101454.25;2211237;39;115912;-56
2021/07/14 01:40:45;;;;;;;;;;;;;;;22.10;63.62;101453.97;2209610;39;115764;-56
2021/07/14 01:42:19;;;;;;;;;;;;;;;22.10;63.81;101456.78;2211158;39;115656;-56
2021/07/14 01:43:52;;;;;;;;;;;;;;;22.09;63.95;101454.25;2204646;39;115451;-56
2021/07/14 01:45:29;;;;;;;;;;;;;;;22.11;63.87;101460.44;2207855;39;114594;-55
2021/07/14 01:47:01;;;;;;;;;;;;;;;22.10;63.78;101458.75;2213382;39;114672;-56
2021/07/14 01:48:35;;;;;;;;;;;;;;;22.11;63.78;101466.06;2210972;39;113771;-56
2021/07/14 01:50:07;;;;;;;;;;;;;;;22.08;63.79;101455.38;2210438;39;114351;-55
2021/07/14 01:51:41;;;;;;;;;;;;;;;22.09;63.85;101457.91;2207356;39;114036;-56
2021/07/14 01:53:13;;;;;;;;;;;;;;;22.10;64.07;101464.38;2211138;39;113849;-56
2021/07/14 01:54:47;;;;;;;;;;;;;;;22.09;63.62;101460.72;2206327;39;113809;-56
2021/07/14 01:56:21;;;;;;;;;;;;;;;22.09;63.86;101465.50;2205500;39;113951;-56
2021/07/14 01:57:54;;;;;;;;;;;;;;;22.09;63.94;101462.69;2204176;39;114329;-56
2021/07/14 01:59:27;;;;;;;;;;;;;;;22.07;63.84;101460.22;2210044;39;114097;-56
2021/07/14 02:00:59;;;;;;;;;;;;;;;22.09;64.05;101462.69;2210946;39;113765;-55
2021/07/14 02:02:34;;;;;;;;;;;;;;;22.10;63.82;101461.56;2212465;39;114230;-55
2021/07/14 02:05:48;;;;;;;;;;;;;;;22.11;64.17;101460.44;2207653;39;113689;-55
2021/07/14 02:07:24;;;;;;;;;;;;;;;22.11;63.95;101457.59;2216630;39;113908;-55
2021/07/14 02:08:56;;;;;;;;;;;;;;;22.12;64.14;101460.09;2215468;39;113679;-55
2021/07/14 02:10:29;;;;;;;;;;;;;;;22.12;63.80;101462.91;2211459;39;113834;-55
2021/07/14 02:12:02;;;;;;;;;;;;;;;22.12;63.84;101467.72;2210469;39;114814;-55
2021/07/14 02:13:36;;;;;;;;;;;;;;;22.12;63.94;101465.72;2214242;39;113912;-56
2021/07/14 02:15:09;;;;;;;;;;;;;;;22.11;64.27;101463.25;2212716;39;115199;-55
2021/07/14 02:16:43;;;;;;;;;;;;;;;22.10;63.82;101467.19;2210664;39;113984;-55
2021/07/14 02:18:16;;;;;;;;;;;;;;;22.15;63.99;101455.84;2205436;39;115107;-56
2021/07/14 02:19:51;;;;;;;;;;;;;;;22.13;64.07;101460.94;2205327;39;114044;-55
2021/07/14 02:21:23;;;;;;;;;;;;;;;22.12;64.36;101448.03;2210864;39;115224;-55
2021/07/14 02:22:55;;;;;;;;;;;;;;;22.11;63.89;101449.16;2211567;39;114845;-56
2021/07/14 02:24:27;;;;;;;;;;;;;;;22.12;64.04;101445.22;2210332;39;115015;-55
2021/07/14 02:26:01;;;;;;;;;;;;;;;22.15;64.36;101450.22;2211160;39;115170;-56
2021/07/14 02:27:33;;;;;;;;;;;;;;;22.14;64.30;101443.75;2210774;39;114797;-55
2021/07/14 02:29:05;;;;;;;;;;;;;;;22.12;63.85;101446.03;2211597;39;116376;-56
2021/07/14 02:30:36;;;;;;;;;;;;;;;22.13;64.20;101446.88;2213712;39;115398;-55
2021/07/14 02:32:12;;;;;;;;;;;;;;;22.11;64.01;101452.81;2210477;39;115834;-56
2021/07/14 02:33:44;;;;;;;;;;;;;;;22.12;63.93;101450.84;2211578;39;115493;-55
2021/07/14 02:35:16;;;;;;;;;;;;;;;22.14;64.53;101459.81;2211172;39;115485;-55
2021/07/14 02:36:48;;;;;;;;;;;;;;;22.13;63.95;101458.13;2208283;39;115908;-55
2021/07/14 02:38:25;;;;;;;;;;;;;;;22.13;64.18;101463.75;2211289;39;116299;-55
2021/07/14 02:39:59;;;;;;;;;;;;;;;22.13;64.21;101460.94;2211538;39;116243;-55
2021/07/14 02:41:34;;;;;;;;;;;;;;;22.14;64.31;101460.63;2210367;39;115416;-55
2021/07/14 02:43:06;;;;;;;;;;;;;;;22.13;64.10;101458.13;2214812;39;116005;-56
2021/07/14 02:44:40;;;;;;;;;;;;;;;22.10;64.01;101462.41;2210730;39;115942;-56
2021/07/14 02:46:15;;;;;;;;;;;;;;;22.13;64.09;101470.22;2210855;39;114537;-56
2021/07/14 02:47:47;;;;;;;;;;;;;;;22.13;64.09;101464.59;2211461;39;115558;-56
2021/07/14 02:49:23;;;;;;;;;;;;;;;22.16;63.92;101468.78;2211056;39;116122;-56
2021/07/14 02:50:56;;;;;;;;;;;;;;;22.11;64.07;101469.72;2210746;39;114532;-56
2021/07/14 02:52:28;;;;;;;;;;;;;;;22.13;64.26;101469.38;2213141;39;115741;-55
2021/07/14 02:54:02;;;;;;;;;;;;;;;22.14;64.07;101471.06;2211250;39;113650;-56
2021/07/14 02:55:36;;;;;;;;;;;;;;;22.12;64.33;101470.53;2210945;39;113608;-56
2021/07/14 02:57:10;;;;;;;;;;;;;;;22.14;64.14;101474.72;2210782;39;114476;-56
2021/07/14 02:58:43;;;;;;;;;;;;;;;22.13;64.28;101478.66;2209047;39;113992;-56
2021/07/14 03:00:15;;;;;;;;;;;;;;;22.13;63.85;101477.81;2210672;39;113772;-55
2021/07/14 03:01:47;;;;;;;;;;;;;;;22.11;64.11;101477.31;2211028;39;113950;-56
2021/07/14 03:03:21;;;;;;;;;;;;;;;22.12;64.25;101476.19;2210660;39;113761;-55
2021/07/14 03:04:54;;;;;;;;;;;;;;;22.13;63.99;101477.81;2205970;39;114131;-56
2021/07/14 03:06:29;;;;;;;;;;;;;;;22.11;63.92;101478.16;2210189;39;113998;-56
2021/07/14 03:08:03;;;;;;;;;;;;;;;22.11;63.88;101485.75;2209185;39;114204;-55
2021/07/14 03:09:37;;;;;;;;;;;;;;;22.11;63.89;101485.75;2208453;39;115488;-56
2021/07/14 03:11:10;;;;;;;;;;;;;;;22.12;63.90;101491.06;2210186;39;113798;-56
2021/07/14 03:12:44;;;;;;;;;;;;;;;22.13;63.83;101489.91;2207623;39;116242;-55
2021/07/14 03:14:16;;;;;;;;;;;;;;;22.12;64.03;101493.88;2209770;39;113678;-55
2021/07/14 03:15:48;;;;;;;;;;;;;;;22.10;63.85;101490.53;2211879;39;113781;-56
2021/07/14 03:17:20;;;;;;;;;;;;;;;22.10;63.97;101495.34;2209950;39;116251;-55
2021/07/14 03:18:53;;;;;;;;;;;;;;;22.12;63.65;101487.44;2207830;39;115006;-54
2021/07/14 03:20:25;;;;;;;;;;;;;;;22.11;63.85;101489.41;2207333;39;114295;-56
2021/07/14 03:21:57;;;;;;;;;;;;;;;22.10;63.93;101487.72;2206434;39;114438;-55
2021/07/14 03:23:30;;;;;;;;;;;;;;;22.14;63.98;101502.84;2210303;39;114930;-56
2021/07/14 03:25:03;;;;;;;;;;;;;;;22.12;63.62;101495.88;2210255;39;114545;-55
2021/07/14 03:26:37;;;;;;;;;;;;;;;22.13;63.83;101500.34;2208103;39;115824;-55
2021/07/14 03:28:10;;;;;;;;;;;;;;;22.12;63.52;101493.88;2210790;39;114788;-55
2021/07/14 03:29:42;;;;;;;;;;;;;;;22.11;63.82;101497.84;2210480;39;115638;-55
2021/07/14 03:31:14;;;;;;;;;;;;;;;22.09;63.46;101491.69;2209443;39;114768;-55
2021/07/14 03:32:46;;;;;;;;;;;;;;;22.13;63.78;101494.72;2209217;39;115503;-58
2021/07/14 03:34:18;;;;;;;;;;;;;;;22.13;63.59;101503.16;2209934;39;114855;-55
2021/07/14 03:35:50;;;;;;;;;;;;;;;22.09;63.56;101496.47;2210021;39;114822;-56
2021/07/14 03:37:22;;;;;;;;;;;;;;;22.11;63.69;101502.63;2207680;39;113871;-55
2021/07/14 03:38:55;;;;;;;;;;;;;;;22.11;63.95;101505.47;2203270;39;116069;-55
2021/07/14 03:40:27;;;;;;;;;;;;;;;22.10;63.69;101506.59;2211778;39;115465;-56
2021/07/14 03:41:59;;;;;;;;;;;;;;;22.10;63.78;101509.41;2212969;39;115959;-56
2021/07/14 03:43:32;;;;;;;;;;;;;;;22.08;63.63;101514.50;2210297;39;114614;-55
2021/07/14 03:45:05;;;;;;;;;;;;;;;22.08;63.80;101511.66;2208957;39;116185;-56
2021/07/14 03:46:37;;;;;;;;;;;;;;;22.06;63.60;101509.19;2210887;39;115533;-56
2021/07/14 03:48:16;;;;;;;;;;;;;;;22.07;63.88;101512.84;2211995;39;114527;-56
2021/07/14 03:49:48;;;;;;;;;;;;;;;22.07;63.81;101513.69;2205453;39;115517;-56
2021/07/14 03:51:23;;;;;;;;;;;;;;;22.08;63.71;101512.50;2210447;39;115457;-55
2021/07/14 03:52:55;;;;;;;;;;;;;;;22.07;63.92;101510.03;2210072;39;116021;-56
2021/07/14 03:54:28;;;;;;;;;;;;;;;22.06;63.94;101508.34;2209265;39;115765;-55
2021/07/14 03:56:00;;;;;;;;;;;;;;;22.08;64.12;101503.22;2210860;39;116002;-55
2021/07/14 03:57:31;;;;;;;;;;;;;;;22.08;63.88;101508.84;2210462;39;115413;-56
2021/07/14 03:59:03;;;;;;;;;;;;;;;22.08;63.54;101508.84;2212359;39;115433;-55
2021/07/14 04:00:36;;;;;;;;;;;;;;;22.07;63.16;101505.25;2210853;39;113722;-55
2021/07/14 04:02:08;;;;;;;;;;;;;;;22.05;63.30;101506.66;2211110;39;114347;-56
2021/07/14 04:03:41;;;;;;;;;;;;;;;22.05;63.33;101507.50;2208503;39;113927;-55
2021/07/14 04:05:15;;;;;;;;;;;;;;;22.07;63.75;101508.06;2211597;39;114018;-55
2021/07/14 04:06:48;;;;;;;;;;;;;;;22.07;63.42;101508.06;2208028;39;115072;-55
2021/07/14 04:08:24;;;;;;;;;;;;;;;22.05;63.48;101506.66;2208964;39;114130;-55
2021/07/14 04:09:57;;;;;;;;;;;;;;;22.04;63.60;101503.00;2209187;39;113777;-55
2021/07/14 04:11:29;;;;;;;;;;;;;;;22.04;63.68;101502.16;2208565;39;113820;-56
2021/07/14 04:13:00;;;;;;;;;;;;;;;22.06;63.76;101506.38;2211647;39;113583;-55
2021/07/14 04:14:32;;;;;;;;;;;;;;;22.04;63.56;101504.97;2211171;39;113795;-55
2021/07/14 04:16:04;;;;;;;;;;;;;;;22.06;63.70;101512.00;2211676;39;113847;-56
2021/07/14 04:17:36;;;;;;;;;;;;;;;22.05;63.63;101504.69;2210721;39;113814;-55
2021/07/14 04:19:07;;;;;;;;;;;;;;;22.07;63.79;101510.88;2202460;39;113897;-55
2021/07/14 04:20:40;;;;;;;;;;;;;;;22.08;63.71;101508.84;2213787;39;114002;-56
2021/07/14 04:22:12;;;;;;;;;;;;;;;22.05;63.52;101501.88;2213260;39;115547;-56
2021/07/14 04:23:44;;;;;;;;;;;;;;;22.07;63.52;101501.59;2210612;39;115190;-56
2021/07/14 04:25:16;;;;;;;;;;;;;;;22.06;63.53;101500.75;2211480;39;114864;-55
2021/07/14 04:26:48;;;;;;;;;;;;;;;22.06;63.83;101502.72;2211252;39;114666;-56
2021/07/14 04:28:20;;;;;;;;;;;;;;;22.05;63.61;101504.69;2210327;39;114053;-56
2021/07/14 04:29:52;;;;;;;;;;;;;;;22.05;63.70;101498.22;2211033;39;114022;-55
2021/07/14 04:31:24;;;;;;;;;;;;;;;22.05;63.85;101495.41;2211453;39;114139;-56
2021/07/14 04:32:55;;;;;;;;;;;;;;;22.05;63.46;101492.59;2206551;39;115264;-56
2021/07/14 04:34:27;;;;;;;;;;;;;;;22.04;63.84;101488.94;2212566;39;114800;-56
2021/07/14 04:35:59;;;;;;;;;;;;;;;22.02;63.95;101491.25;2204344;39;113845;-56
2021/07/14 04:37:30;;;;;;;;;;;;;;;22.06;63.63;101488.66;2208705;39;114484;-56
2021/07/14 04:39:03;;;;;;;;;;;;;;;22.04;63.85;101488.94;2210263;39;115701;-56
2021/07/14 04:40:35;;;;;;;;;;;;;;;22.05;63.74;101486.97;2206796;39;115800;-56
2021/07/14 04:42:07;;;;;;;;;;;;;;;22.04;63.91;101493.72;2213414;39;115486;-56
2021/07/14 04:43:38;;;;;;;;;;;;;;;22.03;64.09;101490.06;2211686;39;115633;-56
2021/07/14 04:45:10;;;;;;;;;;;;;;;22.05;64.02;101492.59;2211820;39;115572;-56
2021/07/14 04:46:42;;;;;;;;;;;;;;;22.05;64.51;101493.44;2205332;39;115188;-56
2021/07/14 04:48:14;;;;;;;;;;;;;;;22.07;64.42;101491.16;2214509;39;115357;-56
2021/07/14 04:49:46;;;;;;;;;;;;;;;22.06;64.43;101495.13;2214278;39;114382;-56
2021/07/14 04:51:18;;;;;;;;;;;;;;;22.06;64.58;101499.91;2210354;39;115559;-56
2021/07/14 04:52:50;;;;;;;;;;;;;;;22.08;64.81;101495.63;2210484;39;115550;-55
2021/07/14 04:54:22;;;;;;;;;;;;;;;22.09;64.93;101502.09;2210936;39;115626;-56
2021/07/14 04:55:54;;;;;;;;;;;;;;;22.09;64.92;101491.69;2211119;39;115646;-56
2021/07/14 04:57:26;;;;;;;;;;;;;;;22.10;64.95;101498.16;2211166;39;115714;-55
2021/07/14 04:58:57;;;;;;;;;;;;;;;22.11;65.10;101499.81;2211409;39;115485;-56
2021/07/14 05:00:29;;;;;;;;;;;;;;;22.11;65.01;101495.03;2210979;39;115728;-55
2021/07/14 05:02:04;;;;;;;;;;;;;;;22.11;65.32;101497.84;2210851;39;115540;-56
2021/07/14 05:03:36;;;;;;;;;;;;;;;22.11;65.25;101494.19;2210648;39;115450;-55
2021/07/14 05:05:08;;;;;;;;;;;;;;;22.12;65.23;101488.25;2213492;39;114955;-56
2021/07/14 05:06:40;;;;;;;;;;;;;;;22.13;65.34;101484.28;2211030;39;114091;-56
2021/07/14 05:08:11;;;;;;;;;;;;;;;22.14;65.33;101493.56;2211020;39;113655;-56
2021/07/14 05:09:43;;;;;;;;;;;;;;;22.13;65.37;101484.28;2211671;39;113953;-56
2021/07/14 05:11:15;;;;;;;;;;;;;;;22.14;65.56;101491.59;2203067;39;116054;-56
2021/07/14 05:12:47;;;;;;;;;;;;;;;22.14;65.42;101496.38;2206314;39;113929;-56
2021/07/14 05:14:19;;;;;;;;;;;;;;;22.15;65.22;101492.44;2211015;39;113802;-57
2021/07/14 05:15:51;;;;;;;;;;;;;;;22.15;65.58;101487.66;2208083;39;113930;-56
2021/07/14 05:17:23;;;;;;;;;;;;;;;22.15;65.03;101490.47;2208857;39;113968;-55
2021/07/14 05:18:55;;;;;;;;;;;;;;;22.16;65.45;101491.31;2207635;39;113903;-55
2021/07/14 05:20:28;;;;;;;;;;;;;;;22.15;65.20;101486.81;2211779;39;113780;-56
2021/07/14 05:21:59;;;;;;;;;;;;;;;22.16;65.49;101494.13;2210687;39;113685;-56
2021/07/14 05:23:31;;;;;;;;;;;;;;;22.16;65.26;101492.16;2204205;39;113933;-56
2021/07/14 05:25:04;;;;;;;;;;;;;;;22.17;65.03;101502.22;2211127;39;113737;-56
2021/07/14 05:26:36;;;;;;;;;;;;;;;22.17;65.17;101490.13;2213577;39;113941;-57
2021/07/14 05:28:08;;;;;;;;;;;;;;;22.17;65.31;101488.16;2209210;39;114587;-56
2021/07/14 05:29:39;;;;;;;;;;;;;;;22.19;65.38;101485.06;2211407;39;114812;-55
2021/07/14 05:31:11;;;;;;;;;;;;;;;22.18;65.53;101483.38;2211278;39;114971;-56
2021/07/14 05:32:44;;;;;;;;;;;;;;;22.18;65.32;101491.81;2210818;39;114819;-56
2021/07/14 05:34:15;;;;;;;;;;;;;;;22.21;65.29;101479.13;2211228;39;115401;-56
2021/07/14 05:35:48;;;;;;;;;;;;;;;22.21;64.95;101479.13;2210527;39;113889;-55
2021/07/14 05:37:19;;;;;;;;;;;;;;;22.19;65.06;101479.41;2209778;39;114869;-56
2021/07/14 05:38:51;;;;;;;;;;;;;;;22.19;64.80;101487.88;2211550;39;115032;-55
2021/07/14 05:40:23;;;;;;;;;;;;;;;22.21;65.18;101496.00;2208646;39;114800;-55
2021/07/14 05:41:55;;;;;;;;;;;;;;;22.23;64.95;101485.25;2214190;39;114847;-55
2021/07/14 05:43:27;;;;;;;;;;;;;;;22.23;64.95;101490.91;2213264;39;114973;-56
2021/07/14 05:44:59;;;;;;;;;;;;;;;22.23;64.95;101488.91;2208671;39;115286;-56
2021/07/14 05:46:32;;;;;;;;;;;;;;;22.23;64.90;101488.09;2210731;39;114249;-55
2021/07/14 05:48:04;;;;;;;;;;;;;;;22.21;65.12;101485.59;2213632;39;114124;-55
2021/07/14 05:49:36;;;;;;;;;;;;;;;22.21;64.84;101488.41;2211427;39;115964;-56
2021/07/14 05:51:07;;;;;;;;;;;;;;;22.22;64.90;101489.22;2211136;39;115690;-55
2021/07/14 05:52:39;;;;;;;;;;;;;;;22.21;64.75;101484.75;2211215;39;115640;-56
2021/07/14 05:54:11;;;;;;;;;;;;;;;22.24;64.82;101486.94;2210777;39;115809;-56
2021/07/14 05:55:43;;;;;;;;;;;;;;;22.25;64.93;101489.47;2210941;39;115755;-55
2021/07/14 05:57:15;;;;;;;;;;;;;;;22.22;64.79;101487.25;2211618;39;115594;-55
2021/07/14 05:58:47;;;;;;;;;;;;;;;22.25;64.71;101485.81;2210748;39;115712;-55
2021/07/14 06:00:18;;;;;;;;;;;;;;;22.24;64.73;101487.78;2211487;39;115533;-56
2021/07/14 06:01:50;;;;;;;;;;;;;;;22.26;64.78;101495.94;2206502;39;115895;-56
2021/07/14 06:03:22;;;;;;;;;;;;;;;22.25;64.84;101495.09;2210177;39;115549;-55
2021/07/14 06:04:53;;;;;;;;;;;;;;;22.26;64.57;101495.94;2208133;39;115721;-55
2021/07/14 06:06:26;;;;;;;;;;;;;;;22.26;64.62;101496.75;2207824;39;116065;-56
2021/07/14 06:07:58;;;;;;;;;;;;;;;22.25;64.60;101502.69;2210965;39;114993;-56
2021/07/14 06:09:29;;;;;;;;;;;;;;;22.26;64.50;101507.19;2207473;39;114522;-56
2021/07/14 06:11:01;;;;;;;;;;;;;;;22.25;64.51;101505.50;2203992;39;113917;-55
2021/07/14 06:12:33;;;;;;;;;;;;;;;22.24;64.36;101501.84;2212393;39;113671;-56
2021/07/14 06:14:05;;;;;;;;;;;;;;;22.22;64.23;101512.56;2212872;39;113791;-55
2021/07/14 06:15:37;;;;;;;;;;;;;;;22.22;64.33;101512.56;2210337;39;114003;-56
2021/07/14 06:17:08;;;;;;;;;;;;;;;22.20;64.79;101514.88;2208149;39;114787;-56
2021/07/14 06:18:40;;;;;;;;;;;;;;;22.21;64.91;101510.09;2210179;39;113603;-56
2021/07/14 06:20:12;;;;;;;;;;;;;;;22.19;64.75;101510.38;2208717;39;113804;-56
2021/07/14 06:21:44;;;;;;;;;;;;;;;22.20;64.62;101506.44;2211146;39;115195;-55
2021/07/14 06:23:16;;;;;;;;;;;;;;;22.21;64.80;101507.28;2210421;39;113862;-55
2021/07/14 06:24:48;;;;;;;;;;;;;;;22.21;64.91;101501.66;2207627;39;113764;-55
2021/07/14 06:26:39;;;;;;;;;;;;;;;22.22;64.68;101509.75;2210794;39;113884;-56
2021/07/14 06:28:13;;;;;;;;;;;;;;;22.24;64.97;101509.47;2207175;39;113925;-55
2021/07/14 06:29:45;;;;;;;;;;;;;;;22.24;65.01;101520.72;2202312;39;114521;-56
2021/07/14 06:31:33;;;;;;;;;;;;;;;22.24;65.29;101515.94;2208173;39;113755;-55
2021/07/14 06:33:05;;;;;;;;;;;;;;;22.25;65.21;101511.16;2210733;39;114579;-56
2021/07/14 06:34:37;;;;;;;;;;;;;;;22.25;64.88;101516.78;2208643;39;114827;-55
2021/07/14 06:36:09;;;;;;;;;;;;;;;22.25;64.90;101520.44;2210980;39;115547;-56
2021/07/14 06:37:40;;;;;;;;;;;;;;;22.27;64.99;101520.09;2210967;39;114771;-55
2021/07/14 06:39:12;;;;;;;;;;;;;;;22.27;64.85;101520.94;2210524;39;115146;-55
2021/07/14 06:40:44;;;;;;;;;;;;;;;22.27;65.11;101518.13;2209894;39;114751;-57
2021/07/14 06:42:16;;;;;;;;;;;;;;;22.27;65.05;101523.75;2211108;39;114250;-56
2021/07/14 06:43:49;;;;;;;;;;;;;;;22.28;64.90;101519.81;2210550;39;114770;-56
2021/07/14 06:45:23;;;;;;;;;;;;;;;22.28;64.89;101522.63;2207311;39;114022;-56
2021/07/14 06:46:59;;;;;;;;;;;;;;;22.29;64.97;101521.50;2210053;39;114517;-56
2021/07/14 06:48:31;;;;;;;;;;;;;;;22.30;64.98;101525.97;2210449;39;114763;-56
2021/07/14 06:50:04;;;;;;;;;;;;;;;22.32;64.78;101529.31;2211299;39;114834;-56
2021/07/14 06:51:36;;;;;;;;;;;;;;;22.33;64.98;101536.63;2207971;39;115107;-55
2021/07/14 06:53:08;;;;;;;;;;;;;;;22.35;65.28;101539.13;2210655;39;114044;-55
2021/07/14 06:54:40;;;;;;;;;;;;;;;22.34;65.00;101543.94;2213938;39;114824;-55
2021/07/14 06:56:12;;;;;;;;;;;;;;;22.35;64.70;101539.13;2204278;39;114299;-55
2021/07/14 06:57:45;;;;;;;;;;;;;;;22.37;64.21;101540.50;2208301;39;116036;-55
2021/07/14 06:59:16;;;;;;;;;;;;;;;22.35;64.03;101542.75;2205605;39;115878;-55
2021/07/14 07:00:48;;;;;;;;;;;;;;;22.36;63.96;101537.97;2207241;39;116029;-55
2021/07/14 07:02:20;;;;;;;;;;;;;;;22.36;63.41;101546.41;2210389;39;115517;-55
2021/07/14 07:03:52;;;;;;;;;;;;;;;22.34;63.58;101549.56;2211348;39;115532;-55
2021/07/14 07:05:24;;;;;;;;;;;;;;;22.34;63.17;101543.94;2206564;39;115782;-55
2021/07/14 07:06:55;;;;;;;;;;;;;;;22.36;63.18;101550.06;2209689;39;115621;-55
2021/07/14 07:08:27;;;;;;;;;;;;;;;22.35;63.05;101551.22;2209053;39;115792;-56
2021/07/14 07:09:59;;;;;;;;;;;;;;;22.35;62.99;101554.03;2210661;39;115546;-55
2021/07/14 07:11:34;;;;;;;;;;;;;;;22.34;62.74;101543.94;2210778;39;115909;-55
2021/07/14 07:13:06;;;;;;;;;;;;;;;22.33;62.72;101550.69;2211160;39;115769;-55
2021/07/14 07:14:40;;;;;;;;;;;;;;;22.34;62.93;101555.19;2210335;39;116452;-55
2021/07/14 07:16:12;;;;;;;;;;;;;;;22.32;62.74;101557.47;2211248;39;116020;-56
2021/07/14 07:17:44;;;;;;;;;;;;;;;22.35;62.62;101561.66;2211196;39;114099;-56
2021/07/14 07:19:16;;;;;;;;;;;;;;;22.33;62.52;101561.97;2208317;39;113906;-61
2021/07/14 07:20:48;;;;;;;;;;;;;;;22.33;62.46;101559.16;2207147;39;113683;-56
2021/07/14 07:22:20;;;;;;;;;;;;;;;22.34;62.43;101571.25;2210699;39;114053;-55
2021/07/14 07:23:52;;;;;;;;;;;;;;;22.36;62.31;101561.34;2210555;39;113729;-55
2021/07/14 07:25:26;;;;;;;;;;;;;;;22.33;62.20;101564.78;2212053;39;113916;-56
2021/07/14 07:26:58;;;;;;;;;;;;;;;22.32;62.36;101557.47;2211057;39;113598;-55
2021/07/14 07:28:35;;;;;;;;;;;;;;;22.33;62.41;101559.16;2210681;39;113770;-56
2021/07/14 07:30:09;;;;;;;;;;;;;;;22.33;62.38;101550.69;2211255;39;113592;-58
2021/07/14 07:31:41;;;;;;;;;;;;;;;22.35;62.52;101564.47;2210278;39;113670;-55
2021/07/14 07:33:13;;;;;;;;;;;;;;;22.32;62.24;101560.28;2206660;39;114179;-55
2021/07/14 07:34:45;;;;;;;;;;;;;;;22.31;61.69;101569.84;2208702;39;114742;-56
2021/07/14 07:36:17;;;;;;;;;;;;;;;22.28;62.09;101564.84;2212506;39;114198;-56
2021/07/14 07:37:49;;;;;;;;;;;;;;;22.31;61.80;101567.03;2214498;39;113979;-56
2021/07/14 07:39:21;;;;;;;;;;;;;;;22.39;61.87;101568.34;2213664;39;114621;-55
2021/07/14 07:40:54;;;;;;;;;;;;;;;22.35;61.75;101567.28;2212138;39;115280;-56
2021/07/14 07:42:26;;;;;;;;;;;;;;;22.33;61.50;101564.78;2210281;39;115043;-56
2021/07/14 07:43:57;;;;;;;;;;;;;;;22.29;61.43;101577.78;2211756;39;114872;-55
2021/07/14 07:45:29;;;;;;;;;;;;;;;22.22;61.37;101570.84;2210333;39;114481;-56
2021/07/14 07:47:02;;;;;;;;;;;;;;;22.24;61.09;101571.41;2202910;39;114469;-55
2021/07/14 07:48:34;;;;;;;;;;;;;;;22.19;61.08;101569.50;2209762;39;114880;-55
2021/07/14 07:50:06;;;;;;;;;;;;;;;22.14;60.86;101566.75;2206937;39;114774;-56
2021/07/14 07:51:38;;;;;;;;;;;;;;;22.11;60.82;101573.00;2211842;39;114923;-56
2021/07/14 07:53:10;;;;;;;;;;;;;;;22.12;60.82;101569.06;2203959;39;115278;-56
2021/07/14 07:54:42;;;;;;;;;;;;;;;22.10;61.06;101569.34;2209398;39;115037;-56
2021/07/14 07:56:14;;;;;;;;;;;;;;;22.13;60.71;101568.72;2211758;39;113908;-56
2021/07/14 07:57:46;;;;;;;;;;;;;;;22.09;60.77;101570.47;2210378;39;113806;-55